Time;durP1;ratioP1;P1;durP2;ratioP2;P2;SDS_P1;SDS_P2;PMS_P1;PMS_P2;Temp;Humidity;BMP_temperature;BMP_pressure;BME280_temperature;BME280_humidity;BME280_pressure;Samples;Min_cycle;Max_cycle;Signal;HPM_P1;HPM_P2
2023/06/06 00:01:32;;;;;;;1.83;1.73;;;21.60;61.60;20.90;96430.00;;;;6096014;23;20171;-83
2023/06/06 00:04:00;;;;;;;2.20;1.80;;;21.60;61.60;20.90;96425.00;;;;6097448;23;20286;-85
2023/06/06 00:06:33;;;;;;;1.73;1.63;;;21.60;61.60;20.90;96417.00;;;;6116070;23;20261;-84
2023/06/06 00:09:02;;;;;;;1.80;1.70;;;21.60;61.70;20.90;96423.00;;;;6126295;23;20158;-85
2023/06/06 00:11:32;;;;;;;1.70;1.60;;;21.60;61.60;20.90;96427.00;;;;6100809;23;20244;-86
2023/06/06 00:13:59;;;;;;;1.67;1.57;;;21.60;61.70;20.90;96426.00;;;;6100348;23;20201;-84
2023/06/06 00:16:28;;;;;;;1.90;1.80;;;21.60;61.60;20.90;96422.00;;;;6075673;23;20199;-84
2023/06/06 00:18:56;;;;;;;1.87;1.77;;;21.60;61.70;20.90;96419.00;;;;6125642;23;20664;-85
2023/06/06 00:21:24;;;;;;;1.57;1.47;;;21.60;61.70;20.80;96414.00;;;;6101056;23;20195;-84
2023/06/06 00:23:55;;;;;;;2.20;2.00;;;21.50;61.60;20.80;96415.00;;;;6126676;23;20199;-85
2023/06/06 00:26:23;;;;;;;2.00;1.90;;;21.50;61.70;20.80;96410.00;;;;6077281;23;20179;-85
2023/06/06 00:28:50;;;;;;;1.43;1.33;;;21.50;61.60;20.70;96414.00;;;;6126907;23;20262;-82
2023/06/06 00:31:17;;;;;;;1.60;1.50;;;21.50;61.60;20.70;96410.00;;;;6126236;23;20335;-85
2023/06/06 00:33:46;;;;;;;1.70;1.60;;;21.40;61.60;20.70;96404.00;;;;6126087;23;20196;-85
2023/06/06 00:36:13;;;;;;;2.00;1.90;;;21.40;61.70;20.60;96400.00;;;;6126082;23;20274;-84
2023/06/06 00:38:41;;;;;;;1.60;1.50;;;21.40;61.70;20.60;96394.00;;;;6126061;23;20691;-85
2023/06/06 00:41:11;;;;;;;2.00;1.90;;;21.30;61.60;20.60;96397.00;;;;6126751;23;20177;-84
2023/06/06 00:43:39;;;;;;;1.77;1.67;;;21.30;61.70;20.50;96396.00;;;;6053373;23;20192;-85
2023/06/06 00:46:10;;;;;;;2.30;1.37;;;21.30;61.50;20.50;96394.00;;;;6099526;23;20179;-85
2023/06/06 00:48:38;;;;;;;1.60;1.50;;;21.20;61.40;20.40;96389.00;;;;6100674;23;20552;-85
2023/06/06 00:51:08;;;;;;;1.43;1.33;;;21.20;61.30;20.30;96394.00;;;;6126086;23;20178;-85
2023/06/06 00:53:36;;;;;;;1.90;1.80;;;21.10;61.20;20.20;96400.00;;;;6125610;23;20242;-85
2023/06/06 00:56:04;;;;;;;1.60;1.50;;;21.10;61.30;20.20;96407.00;;;;6125367;23;20241;-85
2023/06/06 00:58:33;;;;;;;1.60;1.50;;;21.00;61.40;20.10;96397.00;;;;6125525;23;20198;-85
2023/06/06 01:01:01;;;;;;;1.50;1.40;;;20.90;61.50;20.10;96406.00;;;;6100239;23;20245;-85
2023/06/06 01:03:31;;;;;;;1.47;1.37;;;20.90;61.60;20.00;96405.00;;;;6124714;23;20194;-84
2023/06/06 01:05:59;;;;;;;1.37;1.37;;;20.80;61.70;20.00;96408.00;;;;6052946;23;20186;-85
2023/06/06 01:08:26;;;;;;;1.60;1.50;;;20.80;61.90;20.00;96403.00;;;;6099685;23;20262;-84
2023/06/06 01:11:06;;;;;;;1.40;1.30;;;20.80;62.00;19.90;96400.00;;;;6098787;23;20438;-85
2023/06/06 01:13:46;;;;;;;1.50;1.40;;;20.80;62.30;19.90;96403.00;;;;6125181;23;20270;-84
2023/06/06 01:16:19;;;;;;;1.10;1.10;;;20.70;62.40;19.90;96399.00;;;;6099241;23;20199;-84
2023/06/06 01:18:49;;;;;;;1.40;1.30;;;20.70;62.30;19.80;96401.00;;;;6125392;23;20175;-84
2023/06/06 01:21:17;;;;;;;1.47;1.37;;;20.70;63.00;19.80;96400.00;;;;6125884;23;20201;-85
2023/06/06 01:23:47;;;;;;;1.40;1.30;;;20.60;62.10;19.80;96400.00;;;;6125199;23;20193;-85
2023/06/06 01:26:14;;;;;;;1.07;1.07;;;20.60;62.20;19.80;96405.00;;;;6100632;23;20175;-85
2023/06/06 01:28:42;;;;;;;1.30;1.20;;;20.60;62.20;19.80;96403.00;;;;6099374;23;20176;-85
2023/06/06 01:31:18;;;;;;;1.60;1.50;;;20.60;62.20;19.80;96404.00;;;;6126383;23;20552;-84
2023/06/06 01:33:55;;;;;;;1.10;1.10;;;20.60;62.30;19.80;96403.00;;;;6125699;23;20221;-84
2023/06/06 01:36:41;;;;;;;1.50;1.40;;;20.60;62.20;19.80;96406.00;;;;6099940;23;20198;-84
2023/06/06 01:39:16;;;;;;;1.33;1.23;;;20.60;62.20;19.80;96408.00;;;;6126258;23;20538;-85
2023/06/06 01:41:47;;;;;;;1.40;1.30;;;20.60;61.80;19.80;96410.00;;;;6125849;23;20178;-84
2023/06/06 01:44:17;;;;;;;2.47;1.30;;;20.60;61.80;19.80;96411.00;;;;6100901;23;20209;-84
2023/06/06 01:46:45;;;;;;;1.23;1.23;;;20.60;61.80;19.80;96411.00;;;;6099940;23;20233;-85
2023/06/06 01:49:13;;;;;;;1.60;1.30;;;20.60;61.70;19.80;96409.00;;;;6126202;23;20253;-84
2023/06/06 01:51:41;;;;;;;1.23;1.20;;;20.60;61.70;19.80;96409.00;;;;6100508;23;20249;-85
2023/06/06 01:54:11;;;;;;;1.27;1.20;;;20.50;61.50;19.80;96412.00;;;;6125733;23;20263;-85
2023/06/06 01:56:38;;;;;;;1.10;1.10;;;20.50;61.50;19.80;96409.00;;;;6101895;23;20269;-84
2023/06/06 01:59:05;;;;;;;1.87;1.30;;;20.60;61.50;19.80;96406.00;;;;6054420;23;20175;-84
2023/06/06 02:01:33;;;;;;;1.40;1.30;;;20.50;61.40;19.80;96406.00;;;;6127672;23;20293;-84
2023/06/06 02:04:00;;;;;;;1.13;1.10;;;20.50;61.40;19.80;96410.00;;;;6134407;23;20221;-84
2023/06/06 02:06:29;;;;;;;1.20;1.20;;;20.50;61.40;19.80;96411.00;;;;6136888;23;20186;-84
2023/06/06 02:08:57;;;;;;;1.10;1.10;;;20.50;61.50;19.70;96413.00;;;;6136283;23;20175;-84
2023/06/06 02:11:26;;;;;;;1.10;0.97;;;20.50;61.40;19.70;96404.00;;;;6105996;23;20526;-85
2023/06/06 02:13:56;;;;;;;1.37;1.30;;;20.50;61.30;19.70;96412.00;;;;6125667;23;20194;-84
2023/06/06 02:16:24;;;;;;;1.13;1.13;;;20.50;61.20;19.70;96414.00;;;;6099733;23;20756;-85
2023/06/06 02:18:52;;;;;;;1.33;1.23;;;20.50;61.30;19.70;96404.00;;;;6075999;23;20171;-85
2023/06/06 02:21:19;;;;;;;1.17;1.17;;;20.50;61.40;19.70;96401.00;;;;6125615;23;20167;-84
2023/06/06 02:23:46;;;;;;;1.37;1.27;;;20.50;61.40;19.70;96406.00;;;;6125019;23;20208;-84
2023/06/06 02:26:14;;;;;;;1.30;1.23;;;20.50;61.30;19.70;96398.00;;;;6125376;23;20252;-84
2023/06/06 02:28:43;;;;;;;1.30;1.20;;;20.50;61.30;19.70;96402.00;;;;6125789;23;20175;-84
2023/06/06 02:31:11;;;;;;;1.50;1.40;;;20.50;61.30;19.70;96406.00;;;;6100189;23;20171;-85
2023/06/06 02:33:38;;;;;;;1.40;1.30;;;20.50;61.20;19.70;96409.00;;;;6076233;23;20198;-85
2023/06/06 02:36:07;;;;;;;1.53;1.43;;;20.40;61.20;19.70;96403.00;;;;6099594;23;20198;-85
2023/06/06 02:38:35;;;;;;;1.20;1.10;;;20.40;61.10;19.70;96410.00;;;;6099493;23;20512;-85
2023/06/06 02:41:02;;;;;;;1.10;1.10;;;20.40;61.10;19.60;96415.00;;;;6125211;23;20182;-85
2023/06/06 02:43:30;;;;;;;1.33;1.23;;;20.40;61.20;19.60;96414.00;;;;6124987;23;20597;-84
2023/06/06 02:45:59;;;;;;;1.13;1.13;;;20.40;61.10;19.60;96410.00;;;;6099795;23;20195;-85
2023/06/06 02:48:26;;;;;;;1.30;1.20;;;20.40;61.20;19.60;96412.00;;;;6127114;23;20177;-85
2023/06/06 02:50:54;;;;;;;1.67;1.57;;;20.30;61.00;19.50;96411.00;;;;6108130;23;20567;-84
2023/06/06 02:53:23;;;;;;;1.60;1.50;;;20.30;61.00;19.50;96422.00;;;;6105794;23;20218;-85
2023/06/06 02:55:51;;;;;;;1.50;1.40;;;20.30;61.00;19.50;96417.00;;;;6130213;23;20211;-85
2023/06/06 02:58:29;;;;;;;1.60;1.50;;;20.30;60.80;19.50;96424.00;;;;6125043;23;20709;-84
2023/06/06 03:01:00;;;;;;;1.77;1.40;;;20.30;60.90;19.50;96422.00;;;;6125191;23;20721;-84
2023/06/06 03:03:28;;;;;;;1.97;1.70;;;20.30;60.70;19.50;96421.00;;;;6126578;23;20191;-84
2023/06/06 03:05:56;;;;;;;1.50;1.40;;;20.30;60.60;19.50;96424.00;;;;6126795;23;20213;-85
2023/06/06 03:08:24;;;;;;;1.57;1.43;;;20.20;60.50;19.40;96433.00;;;;6126149;23;20174;-85
2023/06/06 03:10:53;;;;;;;1.60;1.50;;;20.20;60.50;19.40;96421.00;;;;6126697;23;20277;-84
2023/06/06 03:13:20;;;;;;;2.10;1.90;;;20.20;60.40;19.40;96432.00;;;;6101736;23;20579;-85
2023/06/06 03:15:48;;;;;;;1.83;1.73;;;20.20;60.40;19.40;96424.00;;;;6127026;23;20237;-84
2023/06/06 03:18:20;;;;;;;1.60;1.50;;;20.10;60.40;19.30;96428.00;;;;6053676;23;20186;-84
2023/06/06 03:20:53;;;;;;;1.50;1.40;;;20.10;60.40;19.40;96420.00;;;;6126762;23;20246;-85
2023/06/06 03:23:22;;;;;;;1.70;1.60;;;20.10;60.40;19.30;96425.00;;;;6102253;23;20274;-85
2023/06/06 03:25:51;;;;;;;2.13;2.03;;;20.10;60.40;19.30;96424.00;;;;6101772;23;20176;-85
2023/06/06 03:28:20;;;;;;;1.80;1.70;;;20.10;60.40;19.30;96428.00;;;;6081208;23;20178;-84
2023/06/06 03:30:48;;;;;;;1.63;1.53;;;20.10;60.30;19.30;96422.00;;;;6117708;23;20247;-85
2023/06/06 03:33:17;;;;;;;2.00;1.73;;;20.00;60.20;19.20;96429.00;;;;6147935;23;20206;-84
2023/06/06 03:35:44;;;;;;;2.00;1.73;;;20.00;60.40;19.20;96435.00;;;;6149095;23;20209;-85
2023/06/06 03:38:11;;;;;;;1.73;1.63;;;20.00;60.40;19.20;96432.00;;;;6150311;23;20155;-85
2023/06/06 03:40:39;;;;;;;1.70;1.60;;;20.00;60.40;19.20;96437.00;;;;6153671;23;20179;-84
2023/06/06 03:43:07;;;;;;;2.30;1.80;;;20.00;60.40;19.20;96429.00;;;;6154301;23;20178;-84
2023/06/06 03:45:35;;;;;;;1.90;1.80;;;19.90;60.40;19.10;96426.00;;;;6154170;23;20194;-84
2023/06/06 03:48:03;;;;;;;1.73;1.63;;;19.90;60.40;19.10;96433.00;;;;6128586;23;20178;-84
2023/06/06 03:50:32;;;;;;;2.33;1.53;;;19.90;60.40;19.20;96432.00;;;;6125360;23;20402;-84
2023/06/06 03:52:59;;;;;;;1.77;1.67;;;19.90;60.50;19.10;96438.00;;;;6129867;23;20246;-86
2023/06/06 03:55:28;;;;;;;1.77;1.67;;;19.90;60.50;19.10;96436.00;;;;6105375;23;20505;-84
2023/06/06 03:57:56;;;;;;;2.30;2.10;;;19.90;60.50;19.10;96435.00;;;;6137218;23;20209;-86
2023/06/06 04:00:23;;;;;;;1.97;1.77;;;19.90;60.50;19.10;96434.00;;;;6104268;23;20497;-85
2023/06/06 04:02:52;;;;;;;1.60;1.50;;;19.90;60.50;19.00;96434.00;;;;6126716;23;20166;-84
2023/06/06 04:05:20;;;;;;;2.07;1.97;;;19.80;60.50;19.00;96428.00;;;;6096338;23;20262;-85
2023/06/06 04:07:49;;;;;;;2.50;1.80;;;19.80;60.60;19.00;96434.00;;;;6097889;23;20180;-83
2023/06/06 04:10:18;;;;;;;2.27;1.57;;;19.80;60.60;19.00;96429.00;;;;6099382;23;20171;-84
2023/06/06 04:12:46;;;;;;;1.80;1.70;;;19.80;60.70;19.00;96432.00;;;;6073664;23;20263;-85
2023/06/06 04:15:13;;;;;;;2.00;1.90;;;19.80;60.90;19.00;96431.00;;;;6097110;23;20206;-85
2023/06/06 04:17:43;;;;;;;2.30;2.13;;;19.80;61.70;19.00;96431.00;;;;6098712;23;20254;-84
2023/06/06 04:20:12;;;;;;;2.17;1.93;;;19.70;61.00;19.00;96437.00;;;;6098162;23;20511;-84
2023/06/06 04:22:41;;;;;;;1.97;1.87;;;19.70;61.10;19.00;96443.00;;;;6098350;23;20168;-84
2023/06/06 04:25:12;;;;;;;2.13;1.93;;;19.70;61.20;19.00;96440.00;;;;6096679;23;20215;-84
2023/06/06 04:27:40;;;;;;;2.30;2.10;;;19.70;61.40;18.90;96438.00;;;;6097673;23;20175;-84
2023/06/06 04:30:13;;;;;;;2.60;1.83;;;19.70;61.40;19.00;96430.00;;;;6097261;23;20517;-84
2023/06/06 04:32:40;;;;;;;2.03;1.93;;;19.70;61.40;19.00;96434.00;;;;6099027;23;20167;-88
2023/06/06 04:35:15;;;;;;;1.70;1.60;;;19.70;61.50;19.00;96438.00;;;;6099177;23;20199;-85
2023/06/06 04:37:43;;;;;;;2.37;2.17;;;19.70;61.50;19.00;96442.00;;;;6124445;23;20198;-84
2023/06/06 04:40:13;;;;;;;1.60;1.50;;;19.70;61.50;19.00;96440.00;;;;6096904;23;20691;-84
2023/06/06 04:42:40;;;;;;;1.73;1.63;;;19.80;61.60;19.00;96434.00;;;;6096042;23;20179;-84
2023/06/06 04:45:09;;;;;;;2.00;1.87;;;19.80;61.60;19.00;96439.00;;;;6096131;23;20191;-84
2023/06/06 04:47:40;;;;;;;2.00;1.90;;;19.80;61.60;19.00;96436.00;;;;6095414;23;20254;-83
2023/06/06 04:50:09;;;;;;;1.67;1.57;;;19.80;61.50;19.10;96447.00;;;;6096889;23;20176;-83
2023/06/06 04:52:36;;;;;;;1.80;1.70;;;19.80;61.50;19.10;96449.00;;;;6094000;23;20171;-84
2023/06/06 04:55:05;;;;;;;2.63;1.80;;;19.90;61.50;19.10;96447.00;;;;6095407;23;20202;-84
2023/06/06 04:57:34;;;;;;;2.40;2.20;;;19.90;61.40;19.10;96443.00;;;;6094755;23;20227;-84
2023/06/06 05:00:05;;;;;;;1.97;1.87;;;19.90;61.40;19.10;96449.00;;;;6095816;23;20203;-84
2023/06/06 05:02:32;;;;;;;2.00;1.80;;;19.90;61.40;19.10;96455.00;;;;6072836;23;20156;-84
2023/06/06 05:05:01;;;;;;;1.97;1.87;;;19.90;61.30;19.10;96458.00;;;;6097701;23;20211;-84
2023/06/06 05:07:29;;;;;;;2.00;1.90;;;19.90;61.30;19.10;96459.00;;;;6125881;23;20159;-84
2023/06/06 05:09:56;;;;;;;1.90;1.80;;;19.90;61.30;19.20;96458.00;;;;6099655;23;20206;-84
2023/06/06 05:12:26;;;;;;;2.10;2.00;;;19.90;61.40;19.20;96462.00;;;;6126465;23;20171;-85
2023/06/06 05:14:55;;;;;;;2.10;2.00;;;19.90;61.50;19.20;96464.00;;;;6126314;23;20191;-84
2023/06/06 05:17:23;;;;;;;2.10;1.90;;;19.90;61.40;19.20;96469.00;;;;6124838;23;20191;-82
2023/06/06 05:19:50;;;;;;;2.30;2.20;;;19.90;61.40;19.20;96470.00;;;;6124176;23;20638;-82
2023/06/06 05:22:18;;;;;;;2.17;2.07;;;19.90;61.30;19.20;96462.00;;;;6075064;23;20170;-84
2023/06/06 05:24:45;;;;;;;2.50;2.30;;;20.00;61.40;19.20;96462.00;;;;6098441;23;20198;-84
2023/06/06 05:27:12;;;;;;;2.27;2.07;;;20.00;61.50;19.30;96456.00;;;;6074787;23;20185;-84
2023/06/06 05:29:40;;;;;;;2.10;1.80;;;20.00;61.50;19.30;96465.00;;;;6124785;23;20171;-84
2023/06/06 05:32:09;;;;;;;2.27;2.10;;;20.00;61.50;19.30;96465.00;;;;6123546;23;20674;-84
2023/06/06 05:34:38;;;;;;;2.17;1.97;;;20.10;61.60;19.30;96473.00;;;;6099644;23;20188;-84
2023/06/06 05:37:07;;;;;;;2.60;2.27;;;20.10;61.50;19.40;96473.00;;;;6124928;23;20199;-82
2023/06/06 05:39:34;;;;;;;2.40;2.20;;;20.10;61.50;19.40;96470.00;;;;6125666;23;20187;-84
2023/06/06 05:42:02;;;;;;;2.63;2.27;;;20.10;61.50;19.50;96470.00;;;;6074805;23;20171;-84
2023/06/06 05:44:29;;;;;;;2.20;2.00;;;20.20;61.40;19.50;96474.00;;;;6124216;23;20193;-84
2023/06/06 05:46:57;;;;;;;2.23;2.03;;;20.20;61.30;19.50;96470.00;;;;6123989;23;20175;-84
2023/06/06 05:49:26;;;;;;;2.00;1.90;;;20.20;61.30;19.50;96467.00;;;;6100521;23;20233;-84
2023/06/06 05:51:53;;;;;;;2.33;2.13;;;20.30;61.50;19.50;96472.00;;;;6123987;23;20701;-82
2023/06/06 05:54:22;;;;;;;2.37;2.17;;;20.30;61.50;19.60;96472.00;;;;6124040;23;20186;-84
2023/06/06 05:56:50;;;;;;;2.13;2.03;;;20.30;61.40;19.60;96471.00;;;;6124679;23;20191;-84
2023/06/06 05:59:18;;;;;;;2.20;2.00;;;20.30;61.30;19.60;96471.00;;;;6117515;23;20174;-84
2023/06/06 06:01:49;;;;;;;2.37;2.17;;;20.40;61.40;19.60;96486.00;;;;6141360;23;20178;-84
2023/06/06 06:04:17;;;;;;;2.50;2.30;;;20.40;61.20;19.70;96476.00;;;;6125723;23;20195;-82
2023/06/06 06:06:47;;;;;;;2.03;1.93;;;20.40;61.30;19.70;96478.00;;;;6124603;23;20183;-84
2023/06/06 06:09:16;;;;;;;2.20;2.10;;;20.40;61.30;19.70;96474.00;;;;6076106;23;20170;-85
2023/06/06 06:11:44;;;;;;;2.20;2.10;;;20.40;61.30;19.80;96476.00;;;;6124307;23;20199;-83
2023/06/06 06:14:11;;;;;;;1.97;1.87;;;20.50;61.30;19.80;96483.00;;;;6099232;23;20675;-84
2023/06/06 06:16:38;;;;;;;2.60;2.00;;;20.50;61.40;19.80;96476.00;;;;6124026;23;20194;-84
2023/06/06 06:19:06;;;;;;;4.20;1.97;;;20.50;61.40;19.90;96487.00;;;;6124491;23;20689;-84
2023/06/06 06:21:35;;;;;;;2.83;2.20;;;20.60;61.50;20.00;96487.00;;;;6099611;23;20202;-83
2023/06/06 06:24:06;;;;;;;2.10;2.00;;;20.60;61.20;20.00;96477.00;;;;6124635;23;20190;-84
2023/06/06 06:26:34;;;;;;;1.90;1.80;;;20.70;61.30;20.00;96474.00;;;;6124581;23;20237;-85
2023/06/06 06:29:02;;;;;;;2.47;2.27;;;20.70;61.20;20.10;96475.00;;;;6124491;23;20246;-84
2023/06/06 06:31:30;;;;;;;2.80;2.30;;;20.70;61.20;20.10;96479.00;;;;6125627;23;20542;-87
2023/06/06 06:33:57;;;;;;;2.00;1.90;;;20.80;61.10;20.10;96474.00;;;;6124587;23;20279;-84
2023/06/06 06:36:24;;;;;;;2.00;1.90;;;20.80;61.10;20.20;96480.00;;;;6100123;23;20222;-83
2023/06/06 06:38:52;;;;;;;2.30;2.10;;;20.80;60.90;20.20;96483.00;;;;6127141;23;20169;-86
2023/06/06 06:41:21;;;;;;;2.17;2.07;;;20.90;60.80;20.20;96490.00;;;;6125971;23;20241;-86
2023/06/06 06:43:50;;;;;;;3.33;2.37;;;20.90;60.50;20.20;96491.00;;;;6126800;23;20249;-83
2023/06/06 06:46:17;;;;;;;2.33;2.20;;;20.90;60.50;20.20;96489.00;;;;6126512;23;20241;-83
2023/06/06 06:48:45;;;;;;;3.00;2.47;;;20.90;60.60;20.30;96494.00;;;;6127493;23;20170;-84
2023/06/06 06:51:16;;;;;;;2.40;2.20;;;20.90;60.70;20.30;96497.00;;;;6127400;23;20228;-84
2023/06/06 06:53:43;;;;;;;2.33;2.13;;;20.90;60.70;20.30;96500.00;;;;6078867;23;20230;-85
2023/06/06 06:56:10;;;;;;;2.33;2.20;;;21.00;60.80;20.40;96498.00;;;;6105063;23;20259;-85
2023/06/06 06:58:41;;;;;;;2.70;2.50;;;21.00;60.80;20.40;96500.00;;;;6133523;23;20209;-84
2023/06/06 07:01:08;;;;;;;2.20;1.97;;;21.00;60.60;20.50;96508.00;;;;6136363;23;20158;-85
2023/06/06 07:03:36;;;;;;;2.57;2.37;;;21.10;60.50;20.50;96501.00;;;;6133693;23;20265;-84
2023/06/06 07:06:04;;;;;;;2.60;2.40;;;21.10;60.40;20.50;96511.00;;;;6134345;23;20265;-84
2023/06/06 07:08:31;;;;;;;2.63;2.43;;;21.10;60.30;20.50;96513.00;;;;6101224;23;20173;-85
2023/06/06 07:10:59;;;;;;;2.77;2.60;;;21.10;60.30;20.50;96510.00;;;;6127889;23;20554;-86
2023/06/06 07:13:27;;;;;;;2.67;2.47;;;21.20;60.20;20.60;96517.00;;;;6102101;23;20234;-85
2023/06/06 07:15:55;;;;;;;2.57;2.37;;;21.20;60.10;20.60;96518.00;;;;6128161;23;20282;-83
2023/06/06 07:18:24;;;;;;;2.90;2.70;;;21.20;60.10;20.60;96516.00;;;;6127394;23;20269;-84
2023/06/06 07:20:51;;;;;;;2.73;2.53;;;21.20;59.90;20.60;96513.00;;;;6128431;23;20176;-84
2023/06/06 07:23:18;;;;;;;2.80;2.60;;;21.30;59.90;20.70;96514.00;;;;6101951;23;20594;-84
2023/06/06 07:25:46;;;;;;;2.53;2.33;;;21.30;59.90;20.70;96512.00;;;;6103276;23;20209;-83
2023/06/06 07:28:15;;;;;;;2.53;2.33;;;21.30;60.60;20.80;96515.00;;;;6127041;23;20252;-85
2023/06/06 07:30:42;;;;;;;8.90;2.73;;;21.40;59.80;20.80;96510.00;;;;6127194;23;20167;-84
2023/06/06 07:33:11;;;;;;;2.47;2.27;;;21.40;59.80;20.80;96511.00;;;;6101839;23;20707;-85
2023/06/06 07:35:39;;;;;;;3.03;2.73;;;21.40;60.00;20.90;96518.00;;;;6127083;23;20250;-84
2023/06/06 07:38:07;;;;;;;2.23;2.13;;;21.50;59.80;20.90;96521.00;;;;6126106;23;20217;-84
2023/06/06 07:40:34;;;;;;;2.83;2.63;;;21.50;59.70;20.90;96515.00;;;;6126454;23;20209;-82
2023/06/06 07:43:01;;;;;;;2.70;2.50;;;21.50;59.70;20.90;96516.00;;;;6126491;23;20713;-85
2023/06/06 07:45:29;;;;;;;2.87;2.67;;;21.50;59.50;21.00;96512.00;;;;6102171;23;20182;-84
2023/06/06 07:47:57;;;;;;;2.67;2.23;;;21.60;59.50;21.00;96521.00;;;;6126623;23;20179;-85
2023/06/06 07:50:26;;;;;;;2.57;2.37;;;21.60;59.60;21.00;96520.00;;;;6126740;23;20174;-85
2023/06/06 07:52:53;;;;;;;2.93;2.73;;;21.60;59.60;21.10;96516.00;;;;6100862;23;20177;-84
2023/06/06 07:55:22;;;;;;;2.70;2.50;;;21.70;59.70;21.10;96515.00;;;;6126662;23;20201;-84
2023/06/06 07:57:50;;;;;;;2.63;2.43;;;21.70;59.70;21.10;96520.00;;;;6126028;23;20255;-84
2023/06/06 08:00:18;;;;;;;2.70;2.40;;;21.70;59.60;21.10;96517.00;;;;6126811;23;20183;-84
2023/06/06 08:02:45;;;;;;;3.10;2.47;;;21.80;59.70;21.20;96510.00;;;;6125304;23;20182;-84
2023/06/06 08:05:13;;;;;;;2.47;2.27;;;21.80;59.60;21.20;96509.00;;;;6100648;23;20205;-82
2023/06/06 08:07:42;;;;;;;2.90;2.70;;;21.80;59.60;21.20;96500.00;;;;6100819;23;20241;-84
2023/06/06 08:10:10;;;;;;;2.57;2.43;;;21.80;59.50;21.20;96502.00;;;;6100697;23;20205;-83
2023/06/06 08:12:38;;;;;;;2.80;2.40;;;21.90;59.50;21.30;96503.00;;;;6099930;23;20171;-83
2023/06/06 08:15:09;;;;;;;2.30;2.20;;;21.90;59.60;21.30;96508.00;;;;6125468;23;20264;-84
2023/06/06 08:17:37;;;;;;;2.43;2.27;;;21.90;59.40;21.30;96506.00;;;;6100016;23;20213;-84
2023/06/06 08:20:08;;;;;;;2.70;2.50;;;21.90;59.30;21.20;96511.00;;;;6125676;23;20171;-85
2023/06/06 08:22:38;;;;;;;2.50;2.30;;;21.90;59.20;21.20;96506.00;;;;6126216;23;20167;-84
2023/06/06 08:25:08;;;;;;;2.40;2.20;;;21.90;59.20;21.30;96510.00;;;;6125209;23;20238;-84
2023/06/06 08:27:36;;;;;;;2.30;2.10;;;21.90;59.00;21.30;96507.00;;;;6100544;23;20187;-84
2023/06/06 08:30:05;;;;;;;2.37;2.17;;;21.90;59.10;21.30;96510.00;;;;6124442;23;20822;-83
2023/06/06 08:32:33;;;;;;;2.03;1.93;;;21.90;59.00;21.30;96509.00;;;;6098174;23;20672;-84
2023/06/06 08:35:03;;;;;;;2.63;2.27;;;21.90;59.00;21.30;96514.00;;;;6124565;23;20218;-83
2023/06/06 08:37:30;;;;;;;2.50;2.30;;;21.90;59.00;21.40;96501.00;;;;6098907;23;20222;-84
2023/06/06 08:39:58;;;;;;;3.00;2.70;;;22.00;59.20;21.50;96506.00;;;;6124940;23;20179;-84
2023/06/06 08:42:32;;;;;;;2.43;2.33;;;22.00;59.10;21.50;96502.00;;;;6075294;23;20638;-81
2023/06/06 08:45:03;;;;;;;2.53;2.33;;;22.10;59.00;21.50;96506.00;;;;6125912;23;20591;-84
2023/06/06 08:47:33;;;;;;;2.50;2.30;;;22.10;58.90;21.60;96511.00;;;;6076849;23;20700;-84
2023/06/06 08:50:04;;;;;;;2.50;2.40;;;22.10;58.90;21.60;96509.00;;;;6125560;23;20174;-84
2023/06/06 08:52:37;;;;;;;2.50;2.27;;;22.20;58.80;21.70;96511.00;;;;6077401;23;20178;-83
2023/06/06 08:55:07;;;;;;;2.40;2.10;;;22.20;58.80;21.70;96510.00;;;;6129991;23;20190;-84
2023/06/06 08:57:41;;;;;;;2.13;2.03;;;22.30;58.60;21.70;96511.00;;;;6115039;23;20194;-84
2023/06/06 09:00:11;;;;;;;3.00;2.80;;;22.30;58.60;21.70;96507.00;;;;6117985;23;20681;-84
2023/06/06 09:02:42;;;;;;;2.57;2.37;;;22.30;58.50;21.70;96512.00;;;;6126780;23;20183;-85
2023/06/06 09:05:12;;;;;;;2.90;2.70;;;22.30;58.30;21.70;96514.00;;;;6100204;23;20198;-84
2023/06/06 09:07:40;;;;;;;2.80;2.60;;;22.30;58.40;21.80;96509.00;;;;6127001;23;20173;-84
2023/06/06 09:10:09;;;;;;;4.23;2.37;;;22.40;58.30;21.80;96506.00;;;;6125850;23;20182;-84
2023/06/06 09:12:43;;;;;;;2.60;2.40;;;22.30;58.30;21.80;96513.00;;;;6127620;23;20202;-84
2023/06/06 09:15:13;;;;;;;2.97;2.27;;;22.40;58.60;21.90;96513.00;;;;6124815;23;20190;-84
2023/06/06 09:17:44;;;;;;;2.87;2.67;;;22.40;59.20;21.90;96516.00;;;;6126308;23;20737;-84
2023/06/06 09:20:14;;;;;;;2.33;2.23;;;22.40;58.60;22.10;96514.00;;;;6127416;23;20179;-82
2023/06/06 09:22:44;;;;;;;3.53;2.47;;;22.50;58.60;22.20;96519.00;;;;6109475;23;20174;-82
2023/06/06 09:25:47;;;;;;;2.60;2.40;;;22.60;58.80;22.40;96515.00;;;;6136592;23;20210;-84
2023/06/06 09:28:16;;;;;;;2.33;2.20;;;22.80;59.20;22.50;96517.00;;;;6112524;23;20193;-84
2023/06/06 09:30:43;;;;;;;2.40;2.20;;;22.90;58.80;22.70;96523.00;;;;6134420;23;20175;-83
2023/06/06 09:33:11;;;;;;;1.90;1.80;;;23.00;58.50;22.70;96515.00;;;;6105803;23;20258;-83
2023/06/06 09:35:44;;;;;;;1.73;1.63;;;23.20;58.20;22.80;96521.00;;;;6125194;23;20181;-83
2023/06/06 09:38:17;;;;;;;2.10;1.83;;;23.30;57.90;22.90;96526.00;;;;6123175;23;20203;-82
2023/06/06 09:40:45;;;;;;;2.53;1.60;;;23.40;57.70;23.00;96527.00;;;;6099970;23;20172;-84
2023/06/06 09:43:17;;;;;;;1.80;1.70;;;23.50;57.70;23.10;96518.00;;;;6125789;23;20197;-84
2023/06/06 09:45:51;;;;;;;1.63;1.53;;;23.60;57.50;23.10;96522.00;;;;6101401;23;20159;-82
2023/06/06 09:48:25;;;;;;;1.70;1.60;;;23.60;57.00;23.20;96519.00;;;;6124836;23;20261;-84
2023/06/06 09:50:52;;;;;;;1.70;1.60;;;23.70;56.90;23.20;96521.00;;;;6099557;23;20654;-83
2023/06/06 09:53:24;;;;;;;1.57;1.47;;;23.70;56.70;23.20;96519.00;;;;6125665;23;20219;-84
2023/06/06 09:55:54;;;;;;;1.43;1.33;;;23.70;56.50;23.20;96525.00;;;;6100649;23;20162;-83
2023/06/06 09:58:23;;;;;;;2.70;1.47;;;23.70;56.50;23.20;96516.00;;;;6126034;23;20199;-85
2023/06/06 10:00:52;;;;;;;1.40;1.40;;;23.80;56.20;23.20;96524.00;;;;6099699;23;20176;-84
2023/06/06 10:03:22;;;;;;;1.30;1.20;;;23.80;56.40;23.20;96519.00;;;;6099707;23;20254;-83
2023/06/06 10:05:51;;;;;;;1.30;1.20;;;23.80;56.40;23.20;96525.00;;;;6094711;23;20217;-84
2023/06/06 10:08:21;;;;;;;2.03;1.20;;;23.80;56.20;23.30;96528.00;;;;6094869;23;20256;-82
2023/06/06 10:10:51;;;;;;;2.00;1.30;;;23.80;56.30;23.30;96524.00;;;;6095649;23;20522;-82
2023/06/06 10:13:22;;;;;;;1.30;1.20;;;23.80;56.00;23.30;96525.00;;;;6095850;23;20276;-83
2023/06/06 10:15:51;;;;;;;1.40;1.30;;;23.80;56.10;23.40;96529.00;;;;6093618;23;20562;-83
2023/06/06 10:18:19;;;;;;;1.50;1.17;;;23.90;56.10;23.40;96526.00;;;;6092549;23;20206;-84
2023/06/06 10:20:47;;;;;;;1.33;1.07;;;23.90;55.60;23.40;96531.00;;;;6093441;23;20275;-83
2023/06/06 10:23:15;;;;;;;0.93;0.93;;;23.90;55.40;23.40;96526.00;;;;6094138;23;20193;-82
2023/06/06 10:25:44;;;;;;;1.10;1.10;;;23.90;55.20;23.40;96520.00;;;;6095027;23;20198;-82
2023/06/06 10:28:20;;;;;;;2.20;1.17;;;23.90;55.30;23.40;96520.00;;;;6069587;23;20195;-83
2023/06/06 10:31:01;;;;;;;1.30;1.20;;;23.90;55.50;23.40;96533.00;;;;6091979;23;20180;-83
2023/06/06 10:33:41;;;;;;;1.43;1.30;;;23.90;55.40;23.50;96522.00;;;;6094101;23;20283;-83
2023/06/06 10:36:10;;;;;;;1.23;1.13;;;23.90;55.30;23.50;96526.00;;;;6096038;23;20246;-83
2023/06/06 10:38:38;;;;;;;0.97;0.97;;;24.00;55.40;23.60;96531.00;;;;6094123;23;20224;-82
2023/06/06 10:41:16;;;;;;;1.40;1.13;;;24.00;55.30;23.70;96525.00;;;;6097377;23;20271;-83
2023/06/06 10:43:53;;;;;;;0.90;0.90;;;24.10;54.80;23.80;96524.00;;;;6094896;23;20231;-83
2023/06/06 10:46:23;;;;;;;0.90;0.90;;;24.20;55.10;23.90;96528.00;;;;6094647;23;20193;-84
2023/06/06 10:48:58;;;;;;;1.03;1.03;;;24.30;55.10;23.90;96524.00;;;;6095850;23;20258;-84
2023/06/06 10:51:36;;;;;;;1.00;1.00;;;24.40;55.00;24.00;96532.00;;;;6095299;23;20177;-83
2023/06/06 10:54:21;;;;;;;0.87;0.87;;;24.40;55.00;24.00;96533.00;;;;6094486;23;20692;-82
2023/06/06 10:56:53;;;;;;;1.03;1.00;;;24.50;54.40;24.00;96531.00;;;;6094525;23;20204;-84
2023/06/06 10:59:28;;;;;;;0.70;0.70;;;24.50;54.70;24.00;96531.00;;;;6094399;23;20270;-84
2023/06/06 11:01:57;;;;;;;0.60;0.60;;;24.60;54.20;24.00;96522.00;;;;6095637;23;20193;-83
2023/06/06 11:04:26;;;;;;;0.87;0.87;;;24.60;54.20;24.10;96531.00;;;;6095952;23;20274;-84